createdAt,value
2018-11-11T00:00:16.357Z,63.70
2018-11-11T00:02:48.225Z,66.80
2018-11-11T00:05:20.972Z,71.40
2018-11-11T00:07:54.741Z,70.77
2018-11-11T00:10:26.241Z,63.50
2018-11-11T00:13:04.313Z,65.27
2018-11-11T00:15:34.322Z,67.13
2018-11-11T00:18:08.623Z,59.03
2018-11-11T00:20:38.273Z,60.67
2018-11-11T00:23:11.835Z,61.00
2018-11-11T00:25:45.045Z,68.10
2018-11-11T00:28:18.155Z,62.23
2018-11-11T00:30:50.308Z,66.20
2018-11-11T00:33:23.490Z,64.93
2018-11-11T00:36:00.694Z,61.87
2018-11-11T00:38:34.006Z,64.57
2018-11-11T00:41:06.145Z,69.83
2018-11-11T00:43:37.417Z,62.50
2018-11-11T00:46:09.634Z,58.90
2018-11-11T00:48:41.709Z,69.43
2018-11-11T00:51:12.262Z,64.70
2018-11-11T00:53:45.218Z,65.47
2018-11-11T00:56:15.636Z,60.00
2018-11-11T00:58:48.382Z,59.80
2018-11-11T01:01:20.688Z,56.97
2018-11-11T01:03:51.544Z,60.00
2018-11-11T01:06:22.214Z,64.90
2018-11-11T01:08:54.389Z,56.03
2018-11-11T01:11:25.144Z,64.73
2018-11-11T01:13:57.128Z,58.87
2018-11-11T01:16:29.222Z,57.37
2018-11-11T01:19:02.091Z,58.83
2018-11-11T01:21:34.280Z,56.27
2018-11-11T01:24:06.671Z,67.10
2018-11-11T01:26:36.813Z,62.23
2018-11-11T01:29:10.133Z,61.67
2018-11-11T01:31:41.845Z,55.23
2018-11-11T01:34:19.482Z,54.67
2018-11-11T01:36:52.213Z,63.60
2018-11-11T01:39:26.528Z,64.70
2018-11-11T01:42:00.349Z,61.63
2018-11-11T01:44:31.751Z,69.90
2018-11-11T01:47:06.819Z,57.67
2018-11-11T01:49:40.057Z,55.57
2018-11-11T01:52:09.965Z,62.37
2018-11-11T01:54:41.097Z,61.90
2018-11-11T01:57:14.441Z,60.20
2018-11-11T01:59:48.455Z,57.50
2018-11-11T02:02:20.941Z,55.00
2018-11-11T02:04:51.797Z,56.20
2018-11-11T02:07:24.069Z,57.97
2018-11-11T02:09:55.281Z,57.80
2018-11-11T02:12:28.794Z,52.73
2018-11-11T02:14:59.470Z,58.27
2018-11-11T02:17:34.435Z,54.50
2018-11-11T02:20:08.941Z,55.27
2018-11-11T02:22:39.922Z,59.33
2018-11-11T02:25:10.621Z,68.47
2018-11-11T02:27:40.592Z,57.67
2018-11-11T02:30:13.851Z,57.23
2018-11-11T02:32:45.353Z,50.37
2018-11-11T02:35:18.757Z,54.33
2018-11-11T02:37:51.011Z,63.30
2018-11-11T02:40:22.867Z,53.63
2018-11-11T02:42:54.002Z,54.53
2018-11-11T02:45:25.432Z,58.07
2018-11-11T02:48:01.005Z,56.93
2018-11-11T02:50:31.241Z,53.70
2018-11-11T02:53:03.120Z,62.13
2018-11-11T02:55:32.995Z,58.57
2018-11-11T02:58:03.399Z,58.50
2018-11-11T03:00:34.392Z,66.23
2018-11-11T03:03:04.184Z,64.80
2018-11-11T03:05:34.416Z,65.73
2018-11-11T03:08:05.625Z,58.57
2018-11-11T03:10:36.649Z,67.00
2018-11-11T03:13:06.992Z,60.30
2018-11-11T03:15:37.263Z,66.57
2018-11-11T03:18:07.306Z,65.93
2018-11-11T03:20:37.396Z,63.13
2018-11-11T03:23:08.943Z,71.87
2018-11-11T03:25:41.352Z,57.80
2018-11-11T03:28:14.862Z,67.20
2018-11-11T03:30:47.375Z,65.73
2018-11-11T03:33:19.401Z,61.83
2018-11-11T03:35:51.458Z,69.83
2018-11-11T03:38:23.380Z,67.97
2018-11-11T03:40:54.519Z,63.50
2018-11-11T03:43:25.066Z,66.73
2018-11-11T03:46:01.839Z,63.90
2018-11-11T03:48:34.276Z,61.60
2018-11-11T03:51:06.418Z,57.93
2018-11-11T03:53:39.058Z,56.93
2018-11-11T03:56:09.408Z,66.70
2018-11-11T03:58:40.470Z,60.83
2018-11-11T04:01:10.290Z,53.70
2018-11-11T04:03:41.365Z,53.23
2018-11-11T04:06:12.833Z,55.00
2018-11-11T04:08:44.742Z,55.67
2018-11-11T04:11:17.319Z,54.37
2018-11-11T04:13:48.098Z,48.57
2018-11-11T04:16:20.539Z,56.50
2018-11-11T04:18:51.506Z,54.83
2018-11-11T04:21:21.813Z,48.40
2018-11-11T04:23:52.701Z,58.90
2018-11-11T04:26:22.320Z,55.70
2018-11-11T04:28:55.023Z,50.43
2018-11-11T04:31:28.340Z,52.77
2018-11-11T04:34:01.694Z,60.97
2018-11-11T04:36:34.506Z,52.47
2018-11-11T04:39:09.322Z,49.90
2018-11-11T04:41:41.701Z,50.23
2018-11-11T04:44:15.293Z,44.90
2018-11-11T04:46:48.137Z,52.80
2018-11-11T04:49:21.346Z,51.07
2018-11-11T04:51:52.217Z,46.57
2018-11-11T04:54:25.238Z,51.83
2018-11-11T04:56:58.075Z,53.30
2018-11-11T04:59:29.823Z,54.17
2018-11-11T05:02:01.645Z,56.30
2018-11-11T05:04:33.093Z,50.87
2018-11-11T05:07:03.556Z,57.83
2018-11-11T05:09:34.773Z,50.93
2018-11-11T05:12:04.719Z,66.10
2018-11-11T05:14:35.610Z,56.30
2018-11-11T05:17:05.566Z,60.20
2018-11-11T05:19:39.940Z,67.53
2018-11-11T05:22:12.029Z,64.30
2018-11-11T05:24:42.577Z,62.37
2018-11-11T05:27:14.600Z,66.77
2018-11-11T05:29:45.581Z,69.23
2018-11-11T05:32:15.817Z,69.13
2018-11-11T05:34:48.049Z,64.70
2018-11-11T05:37:20.949Z,68.83
2018-11-11T05:39:50.785Z,67.13
2018-11-11T05:42:28.396Z,70.33
2018-11-11T05:45:04.374Z,71.10
2018-11-11T05:47:40.288Z,63.20
2018-11-11T05:50:17.424Z,76.23
2018-11-11T05:52:53.083Z,64.50
2018-11-11T05:55:28.645Z,68.43
2018-11-11T05:58:03.537Z,64.27
2018-11-11T06:00:38.667Z,73.60
2018-11-11T06:03:13.781Z,71.50
2018-11-11T06:05:49.728Z,65.23
2018-11-11T06:08:25.899Z,63.80
2018-11-11T06:11:01.458Z,63.17
2018-11-11T06:13:37.613Z,70.17
2018-11-11T06:16:12.908Z,76.87
2018-11-11T06:18:47.980Z,74.53
2018-11-11T06:21:23.799Z,77.87
2018-11-11T06:23:59.165Z,68.60
2018-11-11T06:26:35.351Z,74.50
2018-11-11T06:29:11.362Z,69.83
2018-11-11T06:31:46.533Z,82.73
2018-11-11T06:34:21.716Z,78.10
2018-11-11T06:36:58.469Z,79.93
2018-11-11T06:39:34.150Z,85.27
2018-11-11T06:42:09.633Z,76.20
2018-11-11T06:44:44.743Z,80.13
2018-11-11T06:47:19.746Z,71.70
2018-11-11T06:49:54.784Z,72.47
2018-11-11T06:52:30.866Z,79.17
2018-11-11T06:55:06.737Z,75.37
2018-11-11T06:57:42.807Z,87.80
2018-11-11T07:00:17.851Z,77.27
2018-11-11T07:03:04.757Z,75.63
2018-11-11T07:05:39.868Z,68.50
2018-11-11T07:08:15.537Z,78.33
2018-11-11T07:10:50.898Z,73.63
2018-11-11T07:13:26.606Z,76.50
2018-11-11T07:16:02.219Z,74.23
2018-11-11T07:18:38.196Z,80.73
2018-11-11T07:21:14.031Z,96.40
2018-11-11T07:23:50.400Z,87.90
2018-11-11T07:26:25.343Z,94.27
2018-11-11T07:29:04.482Z,100.60
2018-11-11T07:31:40.111Z,121.17
2018-11-11T07:34:15.078Z,111.10
2018-11-11T07:36:49.994Z,83.83
2018-11-11T07:39:24.856Z,117.03
2018-11-11T07:42:00.475Z,137.33
2018-11-11T07:44:35.548Z,118.80
2018-11-11T07:47:10.715Z,92.97
2018-11-11T07:49:45.778Z,82.57
2018-11-11T07:52:20.529Z,92.67
2018-11-11T07:54:55.757Z,77.73
2018-11-11T07:57:30.668Z,87.67
2018-11-11T08:00:08.229Z,82.13
2018-11-11T08:02:43.373Z,77.00
2018-11-11T08:05:18.223Z,84.23
2018-11-11T08:07:53.167Z,77.77
2018-11-11T08:10:39.039Z,71.23
2018-11-11T08:13:14.137Z,85.53
2018-11-11T08:15:49.198Z,82.07
2018-11-11T08:18:24.002Z,76.37
2018-11-11T08:20:59.598Z,75.97
2018-11-11T08:23:34.348Z,83.17
2018-11-11T08:26:09.474Z,90.43
2018-11-11T08:28:44.525Z,75.63
2018-11-11T08:31:19.362Z,84.33
2018-11-11T08:33:54.352Z,109.20
2018-11-11T08:36:30.192Z,87.63
2018-11-11T08:39:08.833Z,75.30
2018-11-11T08:41:44.709Z,76.57
2018-11-11T08:44:19.843Z,76.17
2018-11-11T08:46:55.965Z,60.83
2018-11-11T08:49:32.115Z,70.50
2018-11-11T08:52:07.982Z,76.00
2018-11-11T08:54:43.254Z,57.63
2018-11-11T08:57:18.467Z,63.13
2018-11-11T08:59:53.277Z,77.33
2018-11-11T09:02:28.242Z,72.43
2018-11-11T09:05:03.091Z,67.20
2018-11-11T09:07:38.586Z,71.77
2018-11-11T09:10:13.749Z,57.43
2018-11-11T09:12:48.722Z,69.27
2018-11-11T09:15:23.740Z,71.87
2018-11-11T09:17:59.093Z,62.10
2018-11-11T09:20:35.775Z,63.43
2018-11-11T09:23:10.778Z,70.53
2018-11-11T09:25:45.574Z,59.50
2018-11-11T09:28:20.503Z,64.10
2018-11-11T09:30:55.340Z,61.53
2018-11-11T09:33:30.161Z,71.10
2018-11-11T09:36:05.234Z,59.80
2018-11-11T09:38:41.522Z,58.20
2018-11-11T09:41:17.996Z,58.43
2018-11-11T09:43:53.881Z,66.30
2018-11-11T09:46:29.057Z,56.87
2018-11-11T09:49:04.841Z,58.87
2018-11-11T09:51:39.735Z,68.53
2018-11-11T09:54:15.743Z,63.10
2018-11-11T09:56:51.006Z,57.33
2018-11-11T09:59:25.792Z,58.27
2018-11-11T10:02:01.377Z,51.43
2018-11-11T10:04:41.111Z,48.30
2018-11-11T10:07:20.473Z,54.43
2018-11-11T10:10:05.845Z,57.90
2018-11-11T10:12:46.528Z,57.00
2018-11-11T10:15:27.587Z,51.00
2018-11-11T10:18:07.805Z,49.30
2018-11-11T10:20:47.787Z,56.47
2018-11-11T10:23:42.889Z,64.17
2018-11-11T10:26:22.922Z,57.07
2018-11-11T10:31:08.733Z,58.73
2018-11-11T10:33:51.802Z,53.20
2018-11-11T10:36:32.470Z,61.73
2018-11-11T10:39:13.415Z,51.10
2018-11-11T10:43:55.373Z,57.90
2018-11-11T10:46:34.025Z,61.97
2018-11-11T10:49:10.919Z,52.53
2018-11-11T10:51:45.810Z,56.70
2018-11-11T10:54:20.869Z,62.33
2018-11-11T10:56:55.813Z,56.50
2018-11-11T10:59:32.057Z,57.87
2018-11-11T11:02:12.571Z,60.13
2018-11-11T11:04:52.809Z,55.50
2018-11-11T11:07:27.975Z,52.60
2018-11-11T11:10:02.943Z,50.17
2018-11-11T11:12:37.698Z,62.03
2018-11-11T11:15:12.706Z,59.80
2018-11-11T11:17:47.782Z,58.07
2018-11-11T11:20:20.010Z,54.40
2018-11-11T11:22:53.115Z,56.37
2018-11-11T11:25:25.300Z,58.40
2018-11-11T11:27:55.476Z,57.03
2018-11-11T11:30:27.377Z,53.20
2018-11-11T11:32:57.252Z,60.00
2018-11-11T11:35:31.125Z,57.57
2018-11-11T11:38:03.573Z,56.03
2018-11-11T11:40:34.385Z,53.33
2018-11-11T11:43:06.510Z,58.53
2018-11-11T11:45:36.542Z,59.67
2018-11-11T11:48:06.691Z,58.13
2018-11-11T11:50:39.087Z,47.93
2018-11-11T11:53:10.605Z,48.90
2018-11-11T11:55:40.288Z,54.13
2018-11-11T11:58:18.591Z,48.17
2018-11-11T12:00:49.405Z,57.00
2018-11-11T12:03:21.437Z,52.97
2018-11-11T12:05:54.811Z,48.60
2018-11-11T12:08:27.579Z,53.23
2018-11-11T12:10:57.520Z,55.20
2018-11-11T12:13:32.193Z,46.33
2018-11-11T12:16:04.981Z,51.47
2018-11-11T12:18:36.671Z,59.17
2018-11-11T12:21:07.837Z,46.20
2018-11-11T12:23:41.348Z,46.57
2018-11-11T12:26:12.429Z,54.70
2018-11-11T12:28:42.310Z,50.63
2018-11-11T12:31:12.220Z,49.33
2018-11-11T12:33:43.098Z,52.03
2018-11-11T12:36:17.886Z,53.93
2018-11-11T12:38:49.629Z,44.50
2018-11-11T12:41:23.642Z,44.83
2018-11-11T12:43:56.867Z,51.00
2018-11-11T12:46:28.091Z,50.33
2018-11-11T12:49:00.264Z,51.33
2018-11-11T12:51:34.469Z,53.43
2018-11-11T12:54:06.673Z,49.00
2018-11-11T12:56:38.537Z,47.53
2018-11-11T12:59:09.837Z,51.50
2018-11-11T13:01:41.317Z,51.87
2018-11-11T13:11:15.417Z,51.10
2018-11-11T13:13:57.206Z,57.23
2018-11-11T13:16:28.717Z,54.47
2018-11-11T13:19:05.743Z,55.00
2018-11-11T13:21:37.705Z,48.87
2018-11-11T13:24:08.495Z,47.17
2018-11-11T13:26:41.150Z,51.37
2018-11-11T13:29:12.745Z,55.93
2018-11-11T13:31:44.480Z,53.30
2018-11-11T13:34:16.910Z,54.30
2018-11-11T13:36:47.821Z,47.90
2018-11-11T13:39:18.719Z,50.53
2018-11-11T13:41:51.457Z,50.20
2018-11-11T13:44:23.066Z,51.20
2018-11-11T13:46:55.915Z,49.57
2018-11-11T13:49:28.173Z,56.20
2018-11-11T13:51:58.590Z,56.57
2018-11-11T13:54:30.923Z,53.17
2018-11-11T13:57:06.636Z,49.10
2018-11-11T13:59:39.164Z,48.97
2018-11-11T14:02:10.057Z,46.93
2018-11-11T14:04:40.197Z,54.90
2018-11-11T14:07:10.120Z,49.80
2018-11-11T14:09:42.589Z,52.43
2018-11-11T14:12:17.762Z,54.17
2018-11-11T14:14:49.413Z,48.47
2018-11-11T14:17:21.663Z,54.83
2018-11-11T14:19:53.923Z,50.87
2018-11-11T14:22:26.505Z,56.30
2018-11-11T14:25:02.784Z,52.67
2018-11-11T14:27:36.111Z,56.40
2018-11-11T14:30:11.574Z,48.77
2018-11-11T14:32:44.518Z,52.83
2018-11-11T14:35:16.006Z,56.20
2018-11-11T14:37:48.921Z,54.20
2018-11-11T14:40:26.833Z,45.90
2018-11-11T14:42:58.140Z,55.90
2018-11-11T14:45:30.406Z,55.83
2018-11-11T14:48:01.201Z,48.93
2018-11-11T14:50:30.901Z,51.27
2018-11-11T14:53:02.766Z,51.00
2018-11-11T14:55:33.830Z,48.50
2018-11-11T14:58:05.244Z,43.20
2018-11-11T15:00:36.282Z,50.73
2018-11-11T15:03:13.238Z,48.37
2018-11-11T15:05:45.374Z,42.10
2018-11-11T15:08:16.355Z,43.17
2018-11-11T15:10:47.088Z,48.97
2018-11-11T15:13:19.738Z,45.13
2018-11-11T15:15:50.126Z,48.10
2018-11-11T15:18:19.940Z,45.87
2018-11-11T15:20:50.680Z,46.47
2018-11-11T15:23:20.697Z,41.30
2018-11-11T15:25:51.019Z,48.10
2018-11-11T15:28:23.365Z,41.27
2018-11-11T15:30:57.402Z,41.93
2018-11-11T15:33:28.903Z,43.83
2018-11-11T15:36:02.453Z,38.90
2018-11-11T15:38:33.297Z,42.53
2018-11-11T15:41:05.566Z,45.20
2018-11-11T15:43:35.571Z,45.90
2018-11-11T15:46:08.210Z,45.70
2018-11-11T15:48:39.405Z,42.57
2018-11-11T15:51:14.596Z,47.20
2018-11-11T15:53:45.785Z,53.37
2018-11-11T15:56:17.448Z,50.33
2018-11-11T15:58:48.741Z,50.10
2018-11-11T16:01:22.993Z,55.80
2018-11-11T16:03:54.067Z,52.60
2018-11-11T16:06:29.800Z,52.30
2018-11-11T16:09:03.644Z,53.37
2018-11-11T16:11:35.042Z,67.70
2018-11-11T16:14:07.982Z,63.53
2018-11-11T16:16:40.806Z,73.20
2018-11-11T16:19:11.853Z,61.90
2018-11-11T16:21:42.382Z,79.07
2018-11-11T16:24:14.717Z,63.77
2018-11-11T16:26:46.238Z,64.50
2018-11-11T16:29:17.009Z,62.83
2018-11-11T16:31:52.160Z,52.63
2018-11-11T16:34:30.268Z,59.40
2018-11-11T16:37:05.104Z,54.07
2018-11-11T16:39:38.373Z,72.03
2018-11-11T16:42:09.132Z,82.73
2018-11-11T16:44:39.477Z,76.60
2018-11-11T16:47:10.446Z,61.57
2018-11-11T16:49:43.581Z,49.90
2018-11-11T16:52:16.367Z,41.33
2018-11-11T16:54:48.542Z,50.00
2018-11-11T16:57:20.274Z,50.60
2018-11-11T16:59:51.404Z,50.70
2018-11-11T17:02:26.447Z,49.30
2018-11-11T17:05:02.076Z,48.90
2018-11-11T17:07:33.573Z,45.37
2018-11-11T17:10:05.209Z,48.17
2018-11-11T17:12:37.826Z,49.77
2018-11-11T17:15:19.025Z,49.87
2018-11-11T17:17:50.643Z,46.20
2018-11-11T17:20:23.918Z,52.20
2018-11-11T17:22:58.300Z,45.10
2018-11-11T17:25:31.700Z,48.03
2018-11-11T17:28:05.533Z,49.17
2018-11-11T17:30:35.332Z,54.87
2018-11-11T17:33:08.445Z,51.43
2018-11-11T17:35:42.291Z,42.67
2018-11-11T17:38:15.223Z,49.47
2018-11-11T17:40:48.077Z,46.00
2018-11-11T17:43:20.873Z,51.87
2018-11-11T17:45:50.615Z,51.80
2018-11-11T17:48:28.194Z,49.77
2018-11-11T17:50:58.930Z,53.93
2018-11-11T17:53:31.016Z,51.60
2018-11-11T17:56:07.341Z,54.60
2018-11-11T17:58:38.062Z,51.40
2018-11-11T18:01:08.296Z,49.27
2018-11-11T18:03:38.196Z,48.80
2018-11-11T18:06:09.509Z,48.00
2018-11-11T18:08:41.124Z,52.60
2018-11-11T18:11:14.851Z,50.10
2018-11-11T18:13:45.817Z,56.93
2018-11-11T18:16:16.568Z,52.50
2018-11-11T18:18:46.792Z,52.10
2018-11-11T18:21:17.098Z,54.73
2018-11-11T18:23:47.095Z,50.40
2018-11-11T18:26:18.121Z,55.63
2018-11-11T18:28:49.048Z,51.47
2018-11-11T18:31:20.810Z,52.07
2018-11-11T18:33:52.900Z,53.03
2018-11-11T18:36:23.269Z,55.50
2018-11-11T18:38:54.309Z,55.47
2018-11-11T18:41:32.497Z,55.23
2018-11-11T18:44:05.746Z,51.30
2018-11-11T18:46:37.872Z,56.73
2018-11-11T18:49:10.750Z,55.00
2018-11-11T18:51:48.138Z,55.43
2018-11-11T18:54:20.287Z,51.20
2018-11-11T18:56:50.295Z,61.53
2018-11-11T18:59:20.287Z,56.90
2018-11-11T19:01:50.235Z,59.23
2018-11-11T19:04:22.805Z,62.87
2018-11-11T19:06:53.277Z,54.47
2018-11-11T19:09:26.084Z,53.37
2018-11-11T19:11:59.660Z,55.17
2018-11-11T19:14:33.247Z,58.73
2018-11-11T19:17:05.556Z,56.13
2018-11-11T19:19:36.752Z,57.23
2018-11-11T19:22:07.839Z,60.37
2018-11-11T19:24:40.205Z,58.70
2018-11-11T19:27:11.053Z,62.77
2018-11-11T19:29:43.834Z,62.30
2018-11-11T19:32:13.539Z,100.00
2018-11-11T19:34:43.366Z,79.50
2018-11-11T19:37:15.371Z,68.07
2018-11-11T19:39:45.776Z,65.17
2018-11-11T19:42:16.117Z,62.60
2018-11-11T19:44:46.809Z,71.40
2018-11-11T19:47:16.970Z,67.43
2018-11-11T19:49:49.172Z,68.47
2018-11-11T19:52:21.703Z,68.80
2018-11-11T19:54:52.048Z,66.37
2018-11-11T19:57:23.006Z,68.27
2018-11-11T19:59:55.686Z,60.10
2018-11-11T20:02:30.585Z,65.10
2018-11-11T20:05:01.949Z,62.50
2018-11-11T20:07:34.189Z,64.80
2018-11-11T20:10:05.538Z,70.50
2018-11-11T20:12:38.648Z,73.07
2018-11-11T20:15:13.918Z,66.87
2018-11-11T20:17:45.565Z,65.20
2018-11-11T20:20:19.454Z,74.50
2018-11-11T20:22:51.708Z,71.83
2018-11-11T20:25:22.602Z,70.90
2018-11-11T20:27:53.899Z,76.07
2018-11-11T20:30:32.425Z,66.60
2018-11-11T20:33:05.390Z,66.40
2018-11-11T20:35:36.186Z,69.70
2018-11-11T20:38:08.269Z,71.07
2018-11-11T20:40:38.896Z,72.07
2018-11-11T20:43:11.023Z,71.60
2018-11-11T20:45:43.955Z,73.53
2018-11-11T20:48:14.997Z,71.20
2018-11-11T20:50:45.794Z,81.63
2018-11-11T20:53:16.262Z,63.57
2018-11-11T20:55:46.272Z,78.43
2018-11-11T20:58:17.791Z,82.27
2018-11-11T21:00:49.634Z,75.23
2018-11-11T21:03:22.442Z,85.07
2018-11-11T21:05:54.333Z,70.73
2018-11-11T21:08:26.426Z,76.80
2018-11-11T21:11:03.403Z,73.77
2018-11-11T21:13:33.893Z,81.67
2018-11-11T21:16:05.649Z,85.97
2018-11-11T21:18:36.212Z,78.53
2018-11-11T21:21:08.667Z,77.10
2018-11-11T21:23:40.610Z,81.63
2018-11-11T21:26:13.775Z,67.97
2018-11-11T21:28:47.236Z,77.63
2018-11-11T21:31:19.517Z,75.40
2018-11-11T21:33:53.135Z,74.97
2018-11-11T21:36:31.022Z,76.13
2018-11-11T21:39:02.739Z,106.47
2018-11-11T21:41:35.338Z,171.80
2018-11-11T21:44:08.370Z,97.10
2018-11-11T21:46:39.704Z,85.50
2018-11-11T21:49:11.411Z,69.40
2018-11-11T21:51:43.240Z,68.60
2018-11-11T21:54:14.409Z,69.93
2018-11-11T21:56:44.309Z,109.00
2018-11-11T21:59:15.881Z,106.13
2018-11-11T22:01:48.136Z,87.00
2018-11-11T22:04:18.972Z,75.37
2018-11-11T22:06:51.469Z,91.90
2018-11-11T22:09:22.543Z,90.53
2018-11-11T22:11:55.871Z,92.50
2018-11-11T22:14:29.864Z,69.17
2018-11-11T22:17:02.905Z,72.00
2018-11-11T22:19:33.210Z,77.80
2018-11-11T22:22:03.674Z,70.60
2018-11-11T22:24:35.297Z,78.67
2018-11-11T22:27:09.230Z,68.70
2018-11-11T22:29:45.463Z,68.67
2018-11-11T22:32:18.395Z,59.27
2018-11-11T22:34:48.546Z,67.57
2018-11-11T22:37:19.766Z,62.20
2018-11-11T22:39:53.478Z,62.07
2018-11-11T22:42:23.235Z,65.07
2018-11-11T22:44:53.677Z,70.17
2018-11-11T22:47:24.256Z,65.17
2018-11-11T22:49:54.225Z,59.63
2018-11-11T22:52:29.185Z,62.27
2018-11-11T22:54:59.097Z,66.47
2018-11-11T22:57:30.298Z,61.73
2018-11-11T23:00:18.553Z,64.60
2018-11-11T23:02:49.389Z,62.10
2018-11-11T23:05:20.763Z,69.77
2018-11-11T23:07:54.390Z,61.67
2018-11-11T23:10:29.143Z,65.03
2018-11-11T23:12:59.429Z,64.90
2018-11-11T23:15:31.146Z,63.53
2018-11-11T23:18:08.615Z,64.10
2018-11-11T23:20:39.441Z,73.23
2018-11-11T23:23:10.535Z,68.43
2018-11-11T23:25:41.142Z,71.53
2018-11-11T23:28:11.557Z,66.20
2018-11-11T23:30:41.406Z,67.90
2018-11-11T23:33:13.546Z,67.87
2018-11-11T23:35:45.965Z,68.83
2018-11-11T23:38:18.954Z,62.97
2018-11-11T23:40:50.069Z,73.60
2018-11-11T23:43:21.892Z,62.80
2018-11-11T23:45:54.694Z,68.10
2018-11-11T23:48:25.363Z,69.90
2018-11-11T23:50:59.985Z,65.03
2018-11-11T23:53:32.653Z,67.20
2018-11-11T23:56:05.309Z,66.57
2018-11-11T23:58:37.163Z,62.73
